Terminal Aerodrome Forecast
Issued by NWS

Home | Current Version | Previous Version | Text Only | Print | Product List | Glossary On
Versions: 1 2 3 4 5 6 7 8 9 10 11 12 13 14 15 16 17 18 19 20 21 22 23 24 25 26 27 28 29 30 31 32 33 34 35 36 37 38 39 40 41 42 43
106
FTUS43 KDDC 281120
TAFHYS
TAF
KHYS 281120Z 2812/2912 16003KT 1/4SM FG OVC005
      TEMPO 2812/2815 1SM BR OVC002
     FM281500 11010KT P6SM OVC008
     FM281900 10016G24KT P6SM -SHRA OVC020
     FM290300 08017G25KT 1 1/2SM SHRA BR OVC003
      AMD NOT SKED=

USA.gov is the U.S. government's official web portal to all federal, state and local government web resources and services.